Terminal Aerodrome Forecast
Issued by NWS Wilmington, OH

Current Version | Previous Version | Graphics & Text | Print | Product List | Glossary On
Versions: 1 2 3 4 5 6 7 8 9 10 11 12 13 14 15 16 17 18
000
FTUS41 KILN 251126
TAFDAY
TAF
KDAY 251126Z 2512/2612 22007KT P6SM VCSH OVC015
      TEMPO 2512/2514 OVC008
     FM251400 30006KT P6SM VCSH OVC015
     FM251800 32012KT P6SM VCSH OVC025
     FM252300 30013KT P6SM OVC025
     FM260900 28008KT P6SM SCT025=

USA.gov is the U.S. government's official web portal to all federal, state and local government web resources and services.